createdAt,value
2023-03-03T00:00:38.018Z,5.97
2023-03-03T00:03:11.940Z,5.10
2023-03-03T00:05:44.942Z,5.53
2023-03-03T00:08:18.766Z,5.77
2023-03-03T00:10:52.705Z,5.63
2023-03-03T00:13:27.261Z,5.37
2023-03-03T00:16:13.382Z,5.47
2023-03-03T00:18:47.890Z,5.13
2023-03-03T00:21:26.327Z,5.60
2023-03-03T00:24:12.580Z,4.90
2023-03-03T00:26:49.982Z,5.67
2023-03-03T00:29:31.715Z,5.10
2023-03-03T00:32:10.875Z,5.57
2023-03-03T00:34:44.589Z,4.70
2023-03-03T00:37:24.125Z,4.83
2023-03-03T00:40:14.809Z,5.80
2023-03-03T00:42:51.120Z,4.63
2023-03-03T00:45:59.716Z,5.63
2023-03-03T00:48:38.610Z,4.70
2023-03-03T00:51:21.492Z,4.77
2023-03-03T00:53:54.985Z,5.33
2023-03-03T00:56:27.899Z,4.90
2023-03-03T00:59:01.009Z,4.97
2023-03-03T01:01:35.395Z,5.20
2023-03-03T01:04:08.507Z,5.70
2023-03-03T01:06:40.981Z,5.50
2023-03-03T01:09:13.714Z,4.80
2023-03-03T01:11:46.825Z,4.90
2023-03-03T01:14:19.675Z,5.30
2023-03-03T01:16:52.497Z,4.60
2023-03-03T01:19:25.550Z,5.17
2023-03-03T01:21:58.230Z,5.20
2023-03-03T01:24:30.891Z,5.40
2023-03-03T01:27:03.636Z,5.23
2023-03-03T01:29:36.334Z,5.53
2023-03-03T01:32:09.104Z,5.40
2023-03-03T01:34:41.762Z,4.87
2023-03-03T01:37:14.595Z,5.60
2023-03-03T01:39:54.772Z,5.23
2023-03-03T01:42:29.855Z,5.60
2023-03-03T01:45:19.566Z,5.73
2023-03-03T01:48:13.395Z,4.77
2023-03-03T01:50:51.715Z,4.90
2023-03-03T01:53:33.107Z,5.27
2023-03-03T01:56:08.408Z,4.67
2023-03-03T01:58:55.064Z,5.33
2023-03-03T02:01:30.525Z,5.40
2023-03-03T02:04:04.967Z,5.60
2023-03-03T02:06:46.081Z,4.80
2023-03-03T02:09:48.335Z,4.80
2023-03-03T02:12:30.785Z,5.30
2023-03-03T02:15:38.487Z,4.97
2023-03-03T02:18:14.002Z,4.73
2023-03-03T02:21:03.646Z,5.40
2023-03-03T02:24:17.912Z,4.13
2023-03-03T02:26:50.654Z,4.47
2023-03-03T02:29:23.360Z,4.90
2023-03-03T02:31:56.578Z,5.03
2023-03-03T02:34:29.392Z,5.07
2023-03-03T02:37:03.917Z,4.63
2023-03-03T02:39:36.719Z,4.70
2023-03-03T02:42:20.026Z,6.43
2023-03-03T02:44:57.114Z,5.10
2023-03-03T02:47:29.778Z,4.83
2023-03-03T02:50:02.505Z,4.53
2023-03-03T02:52:36.174Z,5.40
2023-03-03T02:55:09.382Z,4.73
2023-03-03T02:57:42.088Z,4.83
2023-03-03T03:00:15.120Z,4.47
2023-03-03T03:02:47.867Z,5.47
2023-03-03T03:05:21.011Z,5.03
2023-03-03T03:07:53.734Z,4.87
2023-03-03T03:10:26.565Z,5.10
2023-03-03T03:12:59.494Z,4.93
2023-03-03T03:15:32.878Z,4.70
2023-03-03T03:18:06.347Z,4.70
2023-03-03T03:20:41.460Z,4.47
2023-03-03T03:23:16.343Z,4.33
2023-03-03T03:25:49.211Z,4.43
2023-03-03T03:28:29.912Z,4.50
2023-03-03T03:31:04.585Z,4.87
2023-03-03T03:33:37.393Z,4.43
2023-03-03T03:36:11.220Z,4.97
2023-03-03T03:38:44.225Z,4.40
2023-03-03T03:41:17.450Z,3.83
2023-03-03T03:43:50.230Z,4.57
2023-03-03T03:46:23.075Z,4.63
2023-03-03T03:48:55.916Z,4.47
2023-03-03T03:51:28.752Z,4.03
2023-03-03T03:54:01.603Z,5.47
2023-03-03T03:56:34.450Z,4.93
2023-03-03T03:59:08.741Z,4.83
2023-03-03T04:01:42.474Z,4.13
2023-03-03T04:04:15.543Z,4.83
2023-03-03T04:06:49.244Z,4.13
2023-03-03T04:09:22.064Z,4.93
2023-03-03T04:11:55.265Z,4.67
2023-03-03T04:14:27.998Z,4.43
2023-03-03T04:17:00.783Z,3.77
2023-03-03T04:19:33.618Z,4.47
2023-03-03T04:22:06.808Z,4.50
2023-03-03T04:24:41.049Z,4.07
2023-03-03T04:27:15.283Z,4.53
2023-03-03T04:29:48.426Z,4.07
2023-03-03T04:32:21.536Z,3.93
2023-03-03T04:35:05.815Z,4.10
2023-03-03T04:37:40.397Z,4.13
2023-03-03T04:40:14.082Z,4.63
2023-03-03T04:42:48.623Z,3.80
2023-03-03T04:45:21.421Z,4.30
2023-03-03T04:47:54.884Z,4.23
2023-03-03T04:50:28.299Z,4.40
2023-03-03T04:53:01.041Z,5.07
2023-03-03T04:55:37.509Z,4.03
2023-03-03T04:58:11.315Z,3.70
2023-03-03T05:00:54.289Z,4.03
2023-03-03T05:03:27.482Z,3.93
2023-03-03T05:06:00.254Z,3.97
2023-03-03T05:08:33.348Z,4.33
2023-03-03T05:11:06.599Z,4.00
2023-03-03T05:13:39.368Z,4.27
2023-03-03T05:16:12.304Z,4.10
2023-03-03T05:18:45.599Z,4.47
2023-03-03T05:21:18.380Z,4.10
2023-03-03T05:23:51.079Z,4.40
2023-03-03T05:26:23.707Z,3.93
2023-03-03T05:28:56.422Z,4.63
2023-03-03T05:31:29.195Z,6.85
2023-03-03T05:34:02.031Z,4.87
2023-03-03T05:36:34.954Z,4.93
2023-03-03T05:39:07.717Z,4.10
2023-03-03T05:41:40.394Z,4.03
2023-03-03T05:44:13.174Z,4.37
2023-03-03T05:46:45.861Z,4.87
2023-03-03T05:49:18.762Z,4.30
2023-03-03T05:51:51.437Z,4.43
2023-03-03T05:54:24.119Z,3.83
2023-03-03T05:56:57.312Z,4.07
2023-03-03T05:59:30.099Z,3.83
2023-03-03T06:02:03.009Z,3.83
2023-03-03T06:04:35.839Z,3.97
2023-03-03T06:07:11.223Z,4.57
2023-03-03T06:09:43.940Z,4.30
2023-03-03T06:12:17.074Z,3.73
2023-03-03T06:14:49.787Z,4.20
2023-03-03T06:17:22.471Z,4.27
2023-03-03T06:19:55.179Z,3.80
2023-03-03T06:22:27.913Z,3.97
2023-03-03T06:25:00.663Z,3.50
2023-03-03T06:27:33.404Z,4.47
2023-03-03T06:30:06.764Z,3.63
2023-03-03T06:32:39.636Z,4.63
2023-03-03T06:35:12.611Z,4.00
2023-03-03T06:37:45.443Z,3.57
2023-03-03T06:40:18.291Z,4.47
2023-03-03T06:42:50.938Z,3.90
2023-03-03T06:45:23.752Z,3.47
2023-03-03T06:47:56.402Z,4.07
2023-03-03T06:50:29.144Z,3.80
2023-03-03T06:53:12.511Z,3.80
2023-03-03T06:55:45.632Z,4.27
2023-03-03T06:58:21.080Z,4.47
2023-03-03T07:00:57.485Z,4.10
2023-03-03T07:03:34.979Z,3.40
2023-03-03T07:06:26.236Z,4.83
2023-03-03T07:08:58.900Z,3.47
2023-03-03T07:11:31.743Z,3.43
2023-03-03T07:14:14.191Z,4.37
2023-03-03T07:16:51.553Z,3.97
2023-03-03T07:19:34.340Z,4.20
2023-03-03T07:22:14.595Z,3.90
2023-03-03T07:24:52.821Z,4.17
2023-03-03T07:27:28.277Z,4.63
2023-03-03T07:30:21.966Z,4.20
2023-03-03T07:32:59.176Z,4.57
2023-03-03T07:35:39.660Z,4.57
2023-03-03T07:38:17.447Z,4.30
2023-03-03T07:40:55.350Z,4.70
2023-03-03T07:43:36.719Z,4.50
2023-03-03T07:46:42.777Z,5.47
2023-03-03T07:49:31.291Z,4.90
2023-03-03T07:52:27.414Z,5.43
2023-03-03T07:55:02.452Z,4.63
2023-03-03T07:57:39.582Z,6.27
2023-03-03T08:00:16.395Z,8.85
2023-03-03T08:02:58.273Z,6.97
2023-03-03T08:05:40.568Z,6.50
2023-03-03T08:08:49.391Z,6.27
2023-03-03T08:11:22.052Z,7.20
2023-03-03T08:13:55.359Z,7.87
2023-03-03T08:16:38.008Z,6.13
2023-03-03T08:19:11.922Z,8.27
2023-03-03T08:21:44.949Z,9.90
2023-03-03T08:24:17.634Z,9.23
2023-03-03T08:26:50.782Z,8.27
2023-03-03T08:29:23.457Z,7.50
2023-03-03T08:31:56.298Z,9.20
2023-03-03T08:34:29.074Z,6.63
2023-03-03T08:37:01.746Z,7.67
2023-03-03T08:39:34.488Z,8.07
2023-03-03T08:42:07.194Z,8.03
2023-03-03T08:44:39.950Z,7.93
2023-03-03T08:47:12.645Z,8.57
2023-03-03T08:49:45.376Z,8.30
2023-03-03T08:52:18.047Z,8.80
2023-03-03T08:54:50.924Z,6.83
2023-03-03T08:57:23.587Z,8.70
2023-03-03T08:59:56.325Z,7.10
2023-03-03T09:02:54.534Z,7.80
2023-03-03T09:05:27.968Z,8.10
2023-03-03T09:08:00.778Z,8.30
2023-03-03T09:10:35.374Z,8.43
2023-03-03T09:13:15.192Z,8.70
2023-03-03T09:15:49.107Z,7.53
2023-03-03T09:18:31.452Z,7.47
2023-03-03T09:21:26.955Z,9.00
2023-03-03T09:24:00.577Z,7.13
2023-03-03T09:26:39.420Z,8.03
2023-03-03T09:29:15.273Z,8.13
2023-03-03T09:31:53.557Z,8.43
2023-03-03T09:34:39.747Z,7.43
2023-03-03T09:37:32.399Z,8.90
2023-03-03T09:40:38.211Z,8.23
2023-03-03T09:43:49.898Z,7.80
2023-03-03T09:46:31.666Z,8.30
2023-03-03T09:49:31.087Z,8.63
2023-03-03T09:52:22.054Z,8.33
2023-03-03T09:55:25.634Z,8.40
2023-03-03T09:58:17.673Z,8.90
2023-03-03T10:01:10.637Z,9.37
2023-03-03T10:04:19.130Z,8.47
2023-03-03T10:06:59.544Z,9.17
2023-03-03T10:09:54.358Z,7.87
2023-03-03T10:13:04.669Z,8.83
2023-03-03T10:16:00.538Z,8.63
2023-03-03T10:18:57.621Z,9.33
2023-03-03T10:21:39.551Z,3.43
2023-03-03T10:24:35.139Z,8.40
2023-03-03T10:27:26.429Z,8.17
2023-03-03T10:30:13.405Z,8.87
2023-03-03T10:32:48.572Z,8.57
2023-03-03T10:35:36.652Z,9.63
2023-03-03T10:39:00.007Z,8.93
2023-03-03T10:41:50.487Z,10.13
2023-03-03T10:44:51.357Z,9.80
2023-03-03T10:47:42.579Z,8.97
2023-03-03T10:50:23.985Z,8.73
2023-03-03T10:53:34.030Z,8.30
2023-03-03T10:56:50.383Z,10.27
2023-03-03T10:59:38.707Z,9.30
2023-03-03T11:02:24.525Z,8.63
2023-03-03T11:05:11.392Z,9.17
2023-03-03T11:07:53.372Z,6.60
2023-03-03T11:10:58.685Z,6.63
2023-03-03T11:13:44.637Z,8.63
2023-03-03T11:16:23.545Z,8.47
2023-03-03T11:19:35.977Z,9.03
2023-03-03T11:22:14.578Z,9.50
2023-03-03T11:25:13.155Z,9.23
2023-03-03T11:28:17.129Z,9.23
2023-03-03T11:31:28.812Z,9.93
2023-03-03T11:34:19.987Z,9.40
2023-03-03T11:37:03.956Z,9.60
2023-03-03T11:39:37.908Z,8.40
2023-03-03T11:42:24.836Z,8.03
2023-03-03T11:45:05.676Z,8.83
2023-03-03T11:48:05.953Z,8.70
2023-03-03T11:50:46.228Z,8.50
2023-03-03T11:53:33.960Z,8.70
2023-03-03T11:56:23.683Z,9.60
2023-03-03T11:59:15.319Z,9.20
2023-03-03T12:02:07.390Z,9.27
2023-03-03T12:04:53.975Z,10.67
2023-03-03T12:07:45.288Z,10.60
2023-03-03T12:10:35.636Z,10.27
2023-03-03T12:13:30.329Z,9.67
2023-03-03T12:16:24.994Z,9.57
2023-03-03T12:19:06.625Z,10.23
2023-03-03T12:22:06.218Z,9.60
2023-03-03T12:24:55.109Z,9.80
2023-03-03T12:27:47.691Z,7.00
2023-03-03T12:30:29.430Z,9.87
2023-03-03T12:33:20.851Z,9.30
2023-03-03T12:36:24.792Z,9.83
2023-03-03T12:39:07.688Z,9.77
2023-03-03T12:41:48.888Z,9.33
2023-03-03T12:44:29.401Z,9.10
2023-03-03T12:47:36.012Z,10.20
2023-03-03T12:50:20.582Z,9.13
2023-03-03T12:53:18.252Z,9.10
2023-03-03T12:55:57.447Z,8.65
2023-03-03T12:58:37.459Z,9.75
2023-03-03T13:01:28.078Z,9.75
2023-03-03T13:04:27.555Z,8.35
2023-03-03T13:07:46.212Z,10.60
2023-03-03T13:10:35.531Z,8.98
2023-03-03T13:13:18.045Z,8.00
2023-03-03T13:16:03.056Z,8.70
2023-03-03T13:18:38.114Z,8.83
2023-03-03T13:21:21.617Z,7.60
2023-03-03T13:23:54.369Z,8.33
2023-03-03T13:26:52.190Z,8.33
2023-03-03T13:29:28.548Z,7.07
2023-03-03T13:32:30.852Z,7.57
2023-03-03T13:35:03.809Z,6.03
2023-03-03T13:37:47.445Z,4.47
2023-03-03T13:40:26.523Z,5.30
2023-03-03T13:43:19.376Z,5.47
2023-03-03T13:46:07.329Z,5.82
2023-03-03T13:49:13.550Z,5.53
2023-03-03T13:52:06.314Z,5.23
2023-03-03T13:54:57.379Z,4.63
2023-03-03T13:57:48.552Z,4.47
2023-03-03T14:00:42.898Z,5.20
2023-03-03T14:03:51.453Z,4.20
2023-03-03T14:06:27.364Z,4.50
2023-03-03T14:09:12.758Z,4.20
2023-03-03T14:12:02.468Z,5.40
2023-03-03T14:15:11.003Z,3.53
2023-03-03T14:18:02.757Z,4.33
2023-03-03T14:20:39.719Z,4.43
2023-03-03T14:23:38.391Z,4.80
2023-03-03T14:26:12.773Z,4.63
2023-03-03T14:28:51.075Z,4.27
2023-03-03T14:31:38.234Z,4.27
2023-03-03T14:34:34.125Z,3.90
2023-03-03T14:37:29.537Z,3.73
2023-03-03T14:40:20.454Z,3.77
2023-03-03T14:42:53.149Z,3.40
2023-03-03T14:45:38.663Z,3.60
2023-03-03T14:48:16.320Z,3.60
2023-03-03T14:51:29.997Z,3.80
2023-03-03T14:54:16.422Z,3.53
2023-03-03T14:57:20.326Z,2.73
2023-03-03T15:00:10.802Z,3.53
2023-03-03T15:02:44.843Z,4.28
2023-03-03T15:05:25.003Z,3.07
2023-03-03T15:08:10.279Z,3.17
2023-03-03T15:10:45.642Z,3.00
2023-03-03T15:13:21.451Z,3.17
2023-03-03T15:16:00.484Z,3.63
2023-03-03T15:18:33.554Z,4.30
2023-03-03T15:21:32.265Z,4.17
2023-03-03T15:24:52.599Z,3.55
2023-03-03T15:27:40.644Z,3.20
2023-03-03T15:30:19.122Z,2.80
2023-03-03T15:33:38.016Z,2.93
2023-03-03T15:36:15.595Z,2.53
2023-03-03T15:39:30.562Z,3.03
2023-03-03T15:42:14.525Z,2.93
2023-03-03T15:45:01.264Z,2.63
2023-03-03T15:47:52.975Z,2.97
2023-03-03T15:50:44.997Z,2.40
2023-03-03T15:53:45.290Z,2.73
2023-03-03T15:56:44.011Z,2.47
2023-03-03T15:59:43.142Z,2.20
2023-03-03T16:02:43.090Z,2.67
2023-03-03T16:05:42.972Z,2.43
2023-03-03T16:08:44.768Z,2.90
2023-03-03T16:11:25.745Z,2.67
2023-03-03T16:14:04.708Z,2.83
2023-03-03T16:16:47.785Z,3.47
2023-03-03T16:19:22.391Z,3.07
2023-03-03T16:22:09.983Z,3.23
2023-03-03T16:24:57.839Z,3.20
2023-03-03T16:28:08.455Z,3.37
2023-03-03T16:30:55.804Z,3.30
2023-03-03T16:33:34.294Z,3.43
2023-03-03T16:36:38.383Z,3.30
2023-03-03T16:39:33.297Z,3.63
2023-03-03T16:42:26.624Z,3.42
2023-03-03T16:45:27.390Z,3.90
2023-03-03T16:48:22.116Z,4.40
2023-03-03T16:51:11.733Z,3.43
2023-03-03T16:54:06.754Z,4.40
2023-03-03T16:56:52.362Z,3.47
2023-03-03T16:59:47.180Z,4.17
2023-03-03T17:02:33.327Z,3.83
2023-03-03T17:05:24.807Z,3.67
2023-03-03T17:08:27.604Z,4.07
2023-03-03T17:11:17.988Z,3.87
2023-03-03T17:14:07.744Z,6.30
2023-03-03T17:16:57.915Z,4.40
2023-03-03T17:19:40.298Z,3.60
2023-03-03T17:22:24.359Z,4.43
2023-03-03T17:25:12.573Z,5.20
2023-03-03T17:28:06.993Z,3.20
2023-03-03T17:30:48.732Z,3.27
2023-03-03T17:33:35.034Z,3.40
2023-03-03T17:36:22.774Z,3.63
2023-03-03T17:39:17.460Z,3.20
2023-03-03T17:41:56.870Z,3.70
2023-03-03T17:44:37.763Z,3.67
2023-03-03T17:47:37.194Z,3.50
2023-03-03T17:50:41.143Z,3.37
2023-03-03T17:53:43.590Z,3.93
2023-03-03T17:56:31.440Z,3.70
2023-03-03T17:59:28.454Z,3.20
2023-03-03T18:02:32.504Z,3.93
2023-03-03T18:05:38.787Z,3.53
2023-03-03T18:09:14.177Z,3.83
2023-03-03T18:11:57.096Z,5.28
2023-03-03T18:15:07.982Z,4.40
2023-03-03T18:17:41.804Z,4.70
2023-03-03T18:20:49.210Z,5.17
2023-03-03T18:23:27.961Z,4.20
2023-03-03T18:26:22.504Z,5.13
2023-03-03T18:29:23.942Z,4.50
2023-03-03T18:32:00.175Z,5.90
2023-03-03T18:34:38.746Z,6.47
2023-03-03T18:37:31.680Z,7.80
2023-03-03T18:40:04.358Z,7.57
2023-03-03T18:42:42.897Z,7.60
2023-03-03T18:45:19.274Z,7.73
2023-03-03T18:48:01.411Z,8.00
2023-03-03T18:50:35.311Z,7.63
2023-03-03T18:53:21.795Z,7.40
2023-03-03T18:55:56.527Z,7.97
2023-03-03T18:58:45.608Z,7.73
2023-03-03T19:01:42.054Z,6.77
2023-03-03T19:04:16.308Z,7.00
2023-03-03T19:06:52.288Z,7.53
2023-03-03T19:10:05.751Z,7.13
2023-03-03T19:12:54.185Z,7.90
2023-03-03T19:15:31.031Z,8.10
2023-03-03T19:18:05.752Z,8.50
2023-03-03T19:20:55.529Z,8.10
2023-03-03T19:23:33.794Z,9.23
2023-03-03T19:26:24.796Z,9.27
2023-03-03T19:29:16.268Z,9.83
2023-03-03T19:32:03.196Z,10.50
2023-03-03T19:34:41.894Z,8.33
2023-03-03T19:37:37.334Z,8.87
2023-03-03T19:40:24.393Z,10.03
2023-03-03T19:43:22.669Z,10.17
2023-03-03T19:46:17.491Z,8.83
2023-03-03T19:49:16.944Z,9.00
2023-03-03T19:52:19.193Z,12.40
2023-03-03T19:55:24.821Z,8.20
2023-03-03T19:58:06.774Z,8.57
2023-03-03T20:00:51.858Z,6.90
2023-03-03T20:03:30.488Z,7.67
2023-03-03T20:06:03.527Z,7.50
2023-03-03T20:08:57.937Z,7.77
2023-03-03T20:11:59.120Z,7.37
2023-03-03T20:14:44.201Z,7.20
2023-03-03T20:17:44.406Z,8.43
2023-03-03T20:20:38.675Z,7.77
2023-03-03T20:23:39.107Z,6.93
2023-03-03T20:26:54.560Z,8.10
2023-03-03T20:29:33.091Z,7.40
2023-03-03T20:32:47.474Z,8.03
2023-03-03T20:35:48.036Z,8.10
2023-03-03T20:38:54.953Z,7.43
2023-03-03T20:42:02.160Z,7.43
2023-03-03T20:44:48.230Z,6.83
2023-03-03T20:47:43.540Z,7.23
2023-03-03T20:50:36.451Z,6.90
2023-03-03T20:53:45.034Z,7.90
2023-03-03T20:56:30.417Z,8.23
2023-03-03T20:59:31.964Z,7.40
2023-03-03T21:02:30.051Z,8.43
2023-03-03T21:05:22.425Z,7.57
2023-03-03T21:08:05.036Z,7.10
2023-03-03T21:10:39.819Z,5.83
2023-03-03T21:13:33.844Z,8.40
2023-03-03T21:16:21.557Z,8.97
2023-03-03T21:19:06.520Z,7.13
2023-03-03T21:21:41.099Z,7.77
2023-03-03T21:24:19.405Z,7.27
2023-03-03T21:26:58.791Z,7.87
2023-03-03T21:29:35.551Z,6.77
2023-03-03T21:32:09.586Z,7.50
2023-03-03T21:34:42.540Z,7.30
2023-03-03T21:37:42.748Z,7.23
2023-03-03T21:40:25.318Z,8.63
2023-03-03T21:42:59.606Z,7.43
2023-03-03T21:45:32.322Z,7.77
2023-03-03T21:48:05.553Z,8.50
2023-03-03T21:50:41.114Z,7.80
2023-03-03T21:53:13.873Z,7.70
2023-03-03T21:55:49.527Z,8.30
2023-03-03T21:58:22.275Z,8.77
2023-03-03T22:00:55.019Z,8.40
2023-03-03T22:03:27.845Z,9.07
2023-03-03T22:06:02.549Z,7.83
2023-03-03T22:08:35.826Z,8.30
2023-03-03T22:11:08.761Z,7.37
2023-03-03T22:13:41.741Z,9.37
2023-03-03T22:16:14.696Z,10.03
2023-03-03T22:18:47.673Z,8.17
2023-03-03T22:21:20.581Z,9.20
2023-03-03T22:23:53.895Z,9.83
2023-03-03T22:26:26.763Z,9.67
2023-03-03T22:29:00.168Z,8.53
2023-03-03T22:31:33.517Z,9.53
2023-03-03T22:34:06.716Z,10.20
2023-03-03T22:36:40.016Z,9.13
2023-03-03T22:39:13.049Z,10.47
2023-03-03T22:41:46.073Z,9.73
2023-03-03T22:44:19.137Z,11.10
2023-03-03T22:46:52.112Z,9.13
2023-03-03T22:49:24.784Z,9.70
2023-03-03T22:51:58.718Z,10.47
2023-03-03T22:54:31.654Z,11.23
2023-03-03T22:57:04.753Z,9.83
2023-03-03T22:59:37.830Z,10.70
2023-03-03T23:02:10.818Z,9.47
2023-03-03T23:04:43.814Z,10.03
2023-03-03T23:07:16.804Z,10.60
2023-03-03T23:09:49.681Z,10.80
2023-03-03T23:12:22.966Z,10.97
2023-03-03T23:14:55.875Z,11.93
2023-03-03T23:17:28.904Z,11.03
2023-03-03T23:20:02.045Z,12.23
2023-03-03T23:22:34.988Z,10.87
2023-03-03T23:25:08.562Z,11.83
2023-03-03T23:27:41.995Z,11.13
2023-03-03T23:30:16.092Z,11.93
2023-03-03T23:32:49.197Z,12.30
2023-03-03T23:35:22.599Z,12.07
2023-03-03T23:37:55.575Z,12.13
2023-03-03T23:40:28.993Z,12.43
2023-03-03T23:43:01.896Z,12.43
2023-03-03T23:45:34.908Z,11.67
2023-03-03T23:48:07.892Z,11.27
2023-03-03T23:50:40.975Z,10.93
2023-03-03T23:53:13.924Z,11.53
2023-03-03T23:55:47.070Z,10.60
2023-03-03T23:58:19.983Z,11.10
